createdAt,value
2023-02-18T00:00:09.994Z,86.35
2023-02-18T00:02:37.983Z,85.33
2023-02-18T00:05:06.238Z,85.58
2023-02-18T00:07:35.758Z,86.09
2023-02-18T00:10:04.472Z,84.28
2023-02-18T00:12:34.846Z,84.10
2023-02-18T00:15:02.747Z,84.51
2023-02-18T00:17:31.220Z,83.86
2023-02-18T00:19:59.372Z,83.73
2023-02-18T00:22:27.277Z,82.48
2023-02-18T00:24:55.293Z,80.99
2023-02-18T00:27:23.326Z,81.46
2023-02-18T00:29:53.035Z,83.66
2023-02-18T00:32:20.927Z,84.14
2023-02-18T00:34:49.174Z,83.90
2023-02-18T00:37:17.118Z,82.61
2023-02-18T00:39:45.437Z,82.04
2023-02-18T00:42:14.530Z,82.56
2023-02-18T00:44:42.531Z,83.61
2023-02-18T00:47:12.167Z,84.84
2023-02-18T00:49:40.133Z,84.41
2023-02-18T00:52:08.067Z,85.32
2023-02-18T00:54:35.989Z,85.65
2023-02-18T00:57:04.456Z,85.62
2023-02-18T00:59:32.361Z,86.38
2023-02-18T01:02:00.284Z,86.78
2023-02-18T01:04:29.841Z,87.04
2023-02-18T01:06:57.771Z,86.01
2023-02-18T01:09:26.749Z,86.02
2023-02-18T01:11:54.664Z,85.85
2023-02-18T01:14:22.867Z,83.63
2023-02-18T01:16:50.995Z,84.67
2023-02-18T01:19:19.078Z,84.50
2023-02-18T01:21:48.734Z,84.65
2023-02-18T01:24:16.648Z,85.06
2023-02-18T01:26:44.611Z,84.81
2023-02-18T01:29:12.517Z,84.19
2023-02-18T01:31:40.784Z,84.26
2023-02-18T01:34:08.759Z,84.52
2023-02-18T01:36:36.650Z,84.47
2023-02-18T01:39:06.685Z,83.48
2023-02-18T01:41:34.720Z,83.44
2023-02-18T01:44:17.069Z,83.48
2023-02-18T01:46:45.166Z,84.08
2023-02-18T01:49:17.712Z,85.19
2023-02-18T01:51:50.388Z,84.71
2023-02-18T01:54:23.388Z,84.40
2023-02-18T01:56:56.230Z,84.30
2023-02-18T01:59:27.788Z,84.46
2023-02-18T02:01:56.945Z,84.46
2023-02-18T02:04:25.106Z,85.30
2023-02-18T02:06:53.874Z,84.64
2023-02-18T02:09:26.854Z,84.53
2023-02-18T02:12:15.477Z,84.20
2023-02-18T02:14:55.294Z,85.11
2023-02-18T02:17:34.199Z,85.11
2023-02-18T02:20:33.994Z,84.30
2023-02-18T02:23:35.803Z,83.99
2023-02-18T02:26:40.633Z,84.14
2023-02-18T02:29:30.203Z,83.53
2023-02-18T02:32:30.550Z,84.54
2023-02-18T02:35:04.263Z,83.89
2023-02-18T02:37:39.765Z,82.81
2023-02-18T02:40:21.555Z,82.26
2023-02-18T02:42:59.498Z,83.22
2023-02-18T02:45:39.881Z,82.93
2023-02-18T02:48:19.474Z,82.67
2023-02-18T02:50:56.062Z,80.52
2023-02-18T02:53:28.561Z,81.55
2023-02-18T02:55:56.647Z,79.55
2023-02-18T02:58:24.910Z,80.95
2023-02-18T03:01:15.588Z,81.50
2023-02-18T03:04:15.824Z,79.41
2023-02-18T03:07:00.917Z,78.90
2023-02-18T03:09:40.299Z,78.42
2023-02-18T03:12:18.512Z,76.03
2023-02-18T03:14:54.728Z,75.98
2023-02-18T03:17:27.309Z,74.55
2023-02-18T03:20:04.549Z,73.77
2023-02-18T03:22:39.062Z,67.79
2023-02-18T03:25:08.502Z,71.58
2023-02-18T03:27:42.060Z,68.17
2023-02-18T03:30:17.627Z,68.72
2023-02-18T03:32:48.502Z,68.16
2023-02-18T03:35:21.370Z,67.27
2023-02-18T03:37:54.147Z,67.70
2023-02-18T03:40:22.900Z,69.02
2023-02-18T03:42:50.911Z,68.12
2023-02-18T03:45:19.099Z,69.31
2023-02-18T03:47:47.320Z,69.30
2023-02-18T03:50:15.436Z,68.13
2023-02-18T03:52:43.368Z,70.11
2023-02-18T03:55:12.944Z,67.75
2023-02-18T03:57:41.022Z,69.31
2023-02-18T04:00:10.707Z,70.09
2023-02-18T04:02:38.913Z,71.07
2023-02-18T04:05:07.756Z,70.58
2023-02-18T04:07:35.907Z,67.04
2023-02-18T04:10:04.583Z,69.28
2023-02-18T04:12:34.016Z,67.96
2023-02-18T04:15:01.908Z,66.51
2023-02-18T04:17:29.983Z,67.91
2023-02-18T04:19:57.907Z,68.10
2023-02-18T04:22:25.887Z,66.89
2023-02-18T04:24:53.924Z,65.30
2023-02-18T04:27:21.900Z,67.27
2023-02-18T04:29:51.662Z,67.28
2023-02-18T04:32:19.674Z,64.05
2023-02-18T04:34:47.666Z,57.69
2023-02-18T04:37:15.987Z,63.70
2023-02-18T04:39:44.156Z,59.09
2023-02-18T04:42:12.216Z,62.84
2023-02-18T04:44:40.336Z,61.97
2023-02-18T04:47:09.924Z,59.28
2023-02-18T04:49:38.008Z,58.67
2023-02-18T04:52:06.367Z,60.57
2023-02-18T04:54:34.394Z,55.25
2023-02-18T04:57:02.307Z,60.49
2023-02-18T04:59:30.236Z,59.79
2023-02-18T05:01:58.409Z,56.06
2023-02-18T05:04:27.785Z,56.74
2023-02-18T05:06:55.983Z,56.71
2023-02-18T05:09:24.200Z,57.61
2023-02-18T05:11:52.874Z,56.79
2023-02-18T05:14:20.852Z,56.21
2023-02-18T05:16:48.745Z,56.57
2023-02-18T05:19:17.314Z,55.52
2023-02-18T05:21:46.936Z,53.09
2023-02-18T05:24:14.906Z,54.45
2023-02-18T05:26:42.894Z,52.11
2023-02-18T05:29:11.540Z,53.81
2023-02-18T05:31:39.595Z,53.71
2023-02-18T05:34:07.768Z,52.47
2023-02-18T05:36:35.876Z,53.28
2023-02-18T05:39:05.557Z,52.54
2023-02-18T05:41:33.484Z,52.96
2023-02-18T05:44:27.364Z,53.88
2023-02-18T05:46:55.635Z,54.11
2023-02-18T05:49:23.703Z,54.40
2023-02-18T05:51:51.653Z,53.18
2023-02-18T05:54:21.372Z,53.54
2023-02-18T05:56:49.304Z,52.82
2023-02-18T05:59:17.280Z,53.36
2023-02-18T06:01:45.530Z,54.16
2023-02-18T06:04:13.456Z,53.23
2023-02-18T06:06:41.769Z,52.26
2023-02-18T06:09:10.447Z,50.11
2023-02-18T06:11:39.729Z,53.05
2023-02-18T06:14:07.874Z,53.01
2023-02-18T06:16:35.965Z,51.55
2023-02-18T06:19:04.082Z,52.06
2023-02-18T06:21:32.255Z,52.41
2023-02-18T06:24:00.211Z,50.76
2023-02-18T06:26:28.346Z,50.05
2023-02-18T06:28:57.670Z,51.57
2023-02-18T06:31:25.671Z,51.34
2023-02-18T06:33:53.694Z,51.59
2023-02-18T06:36:21.695Z,50.82
2023-02-18T06:38:49.598Z,52.31
2023-02-18T06:41:17.562Z,51.20
2023-02-18T06:43:45.502Z,52.89
2023-02-18T06:46:14.843Z,51.78
2023-02-18T06:48:42.885Z,52.49
2023-02-18T06:51:10.794Z,49.90
2023-02-18T06:53:38.907Z,52.27
2023-02-18T06:56:07.352Z,50.61
2023-02-18T06:58:35.491Z,52.12
2023-02-18T07:01:03.570Z,50.56
2023-02-18T07:03:33.093Z,50.61
2023-02-18T07:06:01.104Z,50.23
2023-02-18T07:08:30.754Z,50.63
2023-02-18T07:10:58.663Z,50.04
2023-02-18T07:13:26.579Z,50.86
2023-02-18T07:15:54.528Z,50.00
2023-02-18T07:18:22.462Z,49.69
2023-02-18T07:20:52.159Z,48.14
2023-02-18T07:23:20.142Z,48.53
2023-02-18T07:25:48.139Z,47.59
2023-02-18T07:28:16.145Z,46.76
2023-02-18T07:30:44.277Z,47.13
2023-02-18T07:33:14.270Z,48.50
2023-02-18T07:35:42.349Z,47.41
2023-02-18T07:38:11.762Z,48.42
2023-02-18T07:40:39.666Z,48.26
2023-02-18T07:43:07.690Z,48.18
2023-02-18T07:45:35.700Z,47.50
2023-02-18T07:48:03.686Z,47.03
2023-02-18T07:50:35.179Z,46.94
2023-02-18T07:53:03.722Z,47.63
2023-02-18T07:55:47.141Z,46.51
2023-02-18T07:58:15.064Z,46.85
2023-02-18T08:00:42.999Z,47.11
2023-02-18T08:03:10.948Z,45.85
2023-02-18T08:05:39.218Z,46.11
2023-02-18T08:08:07.219Z,46.75
2023-02-18T08:10:36.524Z,44.87
2023-02-18T08:13:04.854Z,45.77
2023-02-18T08:15:32.786Z,46.21
2023-02-18T08:18:00.853Z,45.65
2023-02-18T08:20:30.609Z,44.84
2023-02-18T08:22:58.825Z,45.01
2023-02-18T08:25:29.699Z,44.45
2023-02-18T08:27:59.928Z,44.73
2023-02-18T08:30:28.374Z,44.40
2023-02-18T08:32:56.679Z,44.37
2023-02-18T08:35:24.771Z,44.12
2023-02-18T08:37:54.464Z,42.97
2023-02-18T08:40:23.323Z,44.61
2023-02-18T08:42:51.220Z,45.99
2023-02-18T08:45:20.703Z,43.53
2023-02-18T08:48:18.417Z,44.35
2023-02-18T08:50:36.857Z,43.29
2023-02-18T08:53:05.143Z,42.71
2023-02-18T08:55:34.836Z,43.21
2023-02-18T08:58:02.992Z,42.33
2023-02-18T09:00:32.639Z,43.22
2023-02-18T09:03:00.744Z,43.02
2023-02-18T09:05:28.897Z,43.96
2023-02-18T09:07:57.200Z,44.51
2023-02-18T09:10:26.322Z,43.70
2023-02-18T09:12:54.385Z,44.49
2023-02-18T09:15:22.528Z,44.54
2023-02-18T09:17:52.596Z,45.44
2023-02-18T09:20:20.779Z,44.43
2023-02-18T09:22:48.697Z,45.34
2023-02-18T09:25:16.688Z,44.53
2023-02-18T09:27:44.651Z,44.78
2023-02-18T09:30:13.155Z,45.16
2023-02-18T09:32:41.126Z,42.80
2023-02-18T09:35:10.875Z,43.96
2023-02-18T09:37:40.082Z,44.96
2023-02-18T09:40:09.462Z,44.62
2023-02-18T09:42:37.590Z,44.78
2023-02-18T09:45:08.302Z,44.26
2023-02-18T09:47:38.784Z,45.08
2023-02-18T09:50:15.827Z,43.15
2023-02-18T09:52:43.826Z,42.78
2023-02-18T09:55:23.723Z,43.73
2023-02-18T09:57:54.482Z,43.89
2023-02-18T10:00:26.730Z,43.13
2023-02-18T10:02:58.387Z,41.68
2023-02-18T10:05:30.683Z,42.60
2023-02-18T10:08:03.219Z,42.21
2023-02-18T10:10:40.243Z,43.20
2023-02-18T10:13:14.308Z,42.40
2023-02-18T10:15:44.167Z,42.58
2023-02-18T10:18:24.282Z,42.16
2023-02-18T10:20:58.600Z,43.09
2023-02-18T10:23:26.988Z,42.50
2023-02-18T10:25:56.687Z,42.14
2023-02-18T10:28:26.397Z,42.08
2023-02-18T10:30:59.750Z,41.56
2023-02-18T10:33:36.523Z,43.05
2023-02-18T10:36:19.094Z,44.37
2023-02-18T10:39:07.673Z,43.69
2023-02-18T10:41:44.055Z,43.56
2023-02-18T10:44:19.499Z,43.92
2023-02-18T10:46:55.808Z,44.59
2023-02-18T10:49:51.420Z,44.72
2023-02-18T10:52:21.197Z,46.00
2023-02-18T10:54:53.992Z,44.42
2023-02-18T10:57:24.437Z,45.36
2023-02-18T11:00:10.834Z,45.79
2023-02-18T11:02:40.681Z,46.11
2023-02-18T11:05:21.733Z,46.77
2023-02-18T11:07:53.895Z,45.06
2023-02-18T11:10:26.350Z,45.80
2023-02-18T11:12:58.776Z,46.23
2023-02-18T11:15:28.266Z,46.01
2023-02-18T11:17:59.341Z,47.37
2023-02-18T11:20:31.436Z,46.43
2023-02-18T11:23:17.799Z,47.25
2023-02-18T11:26:00.532Z,47.21
2023-02-18T11:28:36.119Z,47.32
2023-02-18T11:31:05.393Z,47.39
2023-02-18T11:33:37.473Z,47.56
2023-02-18T11:36:13.472Z,48.40
2023-02-18T11:38:48.192Z,48.58
2023-02-18T11:41:18.820Z,46.82
2023-02-18T11:43:50.846Z,48.47
2023-02-18T11:46:21.970Z,47.88
2023-02-18T11:48:50.967Z,47.32
2023-02-18T11:51:21.776Z,46.75
2023-02-18T11:54:02.672Z,46.57
2023-02-18T11:56:33.616Z,48.34
2023-02-18T11:59:03.131Z,48.70
2023-02-18T12:01:44.901Z,48.80
2023-02-18T12:04:15.566Z,48.51
2023-02-18T12:06:51.741Z,47.15
2023-02-18T12:09:27.981Z,47.66
2023-02-18T12:12:00.260Z,47.58
2023-02-18T12:14:29.530Z,47.81
2023-02-18T12:17:23.939Z,48.62
2023-02-18T12:20:04.369Z,49.55
2023-02-18T12:22:42.964Z,47.63
2023-02-18T12:25:28.314Z,47.45
2023-02-18T12:28:13.449Z,48.95
2023-02-18T12:31:04.582Z,48.87
2023-02-18T12:33:45.425Z,49.04
2023-02-18T12:36:25.773Z,48.30
2023-02-18T12:39:05.147Z,49.01
2023-02-18T12:41:57.967Z,49.48
2023-02-18T12:44:36.168Z,49.64
2023-02-18T12:47:31.485Z,49.22
2023-02-18T12:50:32.355Z,49.83
2023-02-18T12:53:17.989Z,49.95
2023-02-18T12:56:00.153Z,49.55
2023-02-18T12:58:43.336Z,50.59
2023-02-18T13:01:24.312Z,49.46
2023-02-18T13:04:12.006Z,49.71
2023-02-18T13:06:59.148Z,52.06
2023-02-18T13:09:40.715Z,50.11
2023-02-18T13:12:16.726Z,50.74
2023-02-18T13:14:51.772Z,50.99
2023-02-18T13:17:22.501Z,50.65
2023-02-18T13:19:56.111Z,50.33
2023-02-18T13:22:26.790Z,51.48
2023-02-18T13:24:59.002Z,51.17
2023-02-18T13:27:32.765Z,51.01
2023-02-18T13:30:18.030Z,51.35
2023-02-18T13:32:59.527Z,51.99
2023-02-18T13:35:34.371Z,52.14
2023-02-18T13:38:18.479Z,51.34
2023-02-18T13:40:47.120Z,49.90
2023-02-18T13:43:22.127Z,49.61
2023-02-18T13:46:10.024Z,50.61
2023-02-18T13:48:52.396Z,49.93
2023-02-18T13:51:31.629Z,50.73
2023-02-18T13:54:05.913Z,49.55
2023-02-18T13:56:37.203Z,49.94
2023-02-18T13:59:11.663Z,51.20
2023-02-18T14:01:43.315Z,50.11
2023-02-18T14:04:37.399Z,50.57
2023-02-18T14:07:30.082Z,49.21
2023-02-18T14:09:59.463Z,49.62
2023-02-18T14:12:38.377Z,50.70
2023-02-18T14:15:39.403Z,51.83
2023-02-18T14:18:25.655Z,50.75
2023-02-18T14:20:53.706Z,50.11
2023-02-18T14:23:43.627Z,51.65
2023-02-18T14:26:23.095Z,51.00
2023-02-18T14:28:55.963Z,52.45
2023-02-18T14:31:36.236Z,52.85
2023-02-18T14:34:40.203Z,52.87
2023-02-18T14:37:32.702Z,53.19
2023-02-18T14:40:14.761Z,51.65
2023-02-18T14:42:51.019Z,52.17
2023-02-18T14:45:32.204Z,52.95
2023-02-18T14:48:31.067Z,53.73
2023-02-18T14:51:00.280Z,52.30
2023-02-18T14:53:30.324Z,53.08
2023-02-18T14:56:03.383Z,55.12
2023-02-18T14:58:35.787Z,53.81
2023-02-18T15:01:08.120Z,53.33
2023-02-18T15:03:36.124Z,54.13
2023-02-18T15:06:05.274Z,53.29
2023-02-18T15:08:41.006Z,55.12
2023-02-18T15:11:09.630Z,56.12
2023-02-18T15:13:44.098Z,56.26
2023-02-18T15:16:17.829Z,58.83
2023-02-18T15:18:52.650Z,57.43
2023-02-18T15:21:25.818Z,55.90
2023-02-18T15:23:56.056Z,56.63
2023-02-18T15:26:24.111Z,57.42
2023-02-18T15:29:01.802Z,57.65
2023-02-18T15:31:32.636Z,59.02
2023-02-18T15:34:00.608Z,58.69
2023-02-18T15:36:28.624Z,58.90
2023-02-18T15:38:59.227Z,59.10
2023-02-18T15:41:27.549Z,58.08
2023-02-18T15:44:00.790Z,60.34
2023-02-18T15:46:29.237Z,59.30
2023-02-18T15:48:59.058Z,61.07
2023-02-18T15:51:29.700Z,61.95
2023-02-18T15:54:03.798Z,61.83
2023-02-18T15:56:32.599Z,61.47
2023-02-18T15:59:19.967Z,62.67
2023-02-18T16:01:51.423Z,63.04
2023-02-18T16:04:21.469Z,64.29
2023-02-18T16:06:52.350Z,64.33
2023-02-18T16:09:25.394Z,65.52
2023-02-18T16:11:59.397Z,65.66
2023-02-18T16:14:34.340Z,65.46
2023-02-18T16:17:10.198Z,66.00
2023-02-18T16:20:02.931Z,66.41
2023-02-18T16:22:36.920Z,66.48
2023-02-18T16:25:17.840Z,67.27
2023-02-18T16:27:52.808Z,67.38
2023-02-18T16:30:22.729Z,68.42
2023-02-18T16:32:52.042Z,68.01
2023-02-18T16:35:20.864Z,69.37
2023-02-18T16:37:50.273Z,68.49
2023-02-18T16:40:35.291Z,68.65
2023-02-18T16:43:10.735Z,69.75
2023-02-18T16:45:42.238Z,70.93
2023-02-18T16:48:18.843Z,70.65
2023-02-18T16:50:47.712Z,70.01
2023-02-18T16:53:15.646Z,70.39
2023-02-18T16:55:45.015Z,70.34
2023-02-18T16:58:13.090Z,70.88
2023-02-18T17:00:41.417Z,71.75
2023-02-18T17:03:10.552Z,72.13
2023-02-18T17:05:40.501Z,71.88
2023-02-18T17:08:18.688Z,73.33
2023-02-18T17:10:49.382Z,73.60
2023-02-18T17:13:18.394Z,74.36
2023-02-18T17:15:47.959Z,74.96
2023-02-18T17:18:16.008Z,74.92
2023-02-18T17:20:43.957Z,74.93
2023-02-18T17:23:15.310Z,75.65
2023-02-18T17:25:44.102Z,76.34
2023-02-18T17:28:13.467Z,76.06
2023-02-18T17:30:42.987Z,76.34
2023-02-18T17:33:14.914Z,78.52
2023-02-18T17:35:42.851Z,76.82
2023-02-18T17:38:12.417Z,77.76
2023-02-18T17:40:41.200Z,76.94
2023-02-18T17:43:14.696Z,77.46
2023-02-18T17:45:46.609Z,76.93
2023-02-18T17:48:14.671Z,77.43
2023-02-18T17:50:42.860Z,77.57
2023-02-18T17:53:11.672Z,75.40
2023-02-18T17:55:41.302Z,76.35
2023-02-18T17:58:10.485Z,76.03
2023-02-18T18:00:42.946Z,76.29
2023-02-18T18:03:12.680Z,76.16
2023-02-18T18:05:43.058Z,75.75
2023-02-18T18:08:11.765Z,75.94
2023-02-18T18:10:42.222Z,76.38
2023-02-18T18:13:16.404Z,76.55
2023-02-18T18:15:45.484Z,76.02
2023-02-18T18:18:14.499Z,75.72
2023-02-18T18:20:45.419Z,75.42
2023-02-18T18:23:15.093Z,74.84
2023-02-18T18:25:45.308Z,75.46
2023-02-18T18:28:13.900Z,75.74
2023-02-18T18:30:44.932Z,76.20
2023-02-18T18:33:20.515Z,76.03
2023-02-18T18:35:51.845Z,76.10
2023-02-18T18:38:20.988Z,76.19
2023-02-18T18:40:49.823Z,75.46
2023-02-18T18:43:21.995Z,75.12
2023-02-18T18:45:51.099Z,75.06
2023-02-18T18:48:22.230Z,75.53
2023-02-18T18:50:50.848Z,76.27
2023-02-18T18:53:20.967Z,75.99
2023-02-18T18:55:49.875Z,75.31
2023-02-18T18:58:20.957Z,75.42
2023-02-18T19:00:51.687Z,76.11
2023-02-18T19:03:21.879Z,76.41
2023-02-18T19:05:50.784Z,76.44
2023-02-18T19:08:20.417Z,76.11
2023-02-18T19:10:50.658Z,77.07
2023-02-18T19:13:20.866Z,76.76
2023-02-18T19:15:50.273Z,77.26
2023-02-18T19:18:21.331Z,77.19
2023-02-18T19:20:49.586Z,76.39
2023-02-18T19:23:17.522Z,77.05
2023-02-18T19:25:45.900Z,77.52
2023-02-18T19:28:14.766Z,78.17
2023-02-18T19:30:43.776Z,77.47
2023-02-18T19:33:14.413Z,76.90
2023-02-18T19:35:44.702Z,76.74
2023-02-18T19:38:14.541Z,77.33
2023-02-18T19:40:43.036Z,77.66
2023-02-18T19:43:11.696Z,77.64
2023-02-18T19:45:43.057Z,77.81
2023-02-18T19:48:11.812Z,76.88
2023-02-18T19:50:41.790Z,75.98
2023-02-18T19:53:12.146Z,76.00
2023-02-18T19:55:40.614Z,76.03
2023-02-18T19:58:08.661Z,76.42
2023-02-18T20:00:36.624Z,76.18
2023-02-18T20:03:04.852Z,76.32
2023-02-18T20:05:32.796Z,77.22
2023-02-18T20:08:00.734Z,76.46
2023-02-18T20:10:30.039Z,75.47
2023-02-18T20:12:58.297Z,76.60
2023-02-18T20:15:27.138Z,76.71
2023-02-18T20:17:55.188Z,76.91
2023-02-18T20:20:23.112Z,76.54
2023-02-18T20:22:51.059Z,76.12
2023-02-18T20:25:19.075Z,75.46
2023-02-18T20:28:00.493Z,75.81
2023-02-18T20:30:29.533Z,76.05
2023-02-18T20:32:57.473Z,75.93
2023-02-18T20:35:25.826Z,76.31
2023-02-18T20:37:53.758Z,76.67
2023-02-18T20:40:21.672Z,76.37
2023-02-18T20:42:51.019Z,75.17
2023-02-18T20:45:19.403Z,77.25
2023-02-18T20:47:47.355Z,77.94
2023-02-18T20:50:16.068Z,77.43
2023-02-18T20:52:44.163Z,77.54
2023-02-18T20:55:12.196Z,77.27
2023-02-18T20:57:40.269Z,77.48
2023-02-18T21:00:13.220Z,77.20
2023-02-18T21:02:41.240Z,77.13
2023-02-18T21:05:09.442Z,76.01
2023-02-18T21:07:37.389Z,76.24
2023-02-18T21:10:06.645Z,76.48
2023-02-18T21:12:34.505Z,76.79
2023-02-18T21:15:02.581Z,76.38
2023-02-18T21:17:32.248Z,77.58
2023-02-18T21:20:00.943Z,77.63
2023-02-18T21:22:28.912Z,77.93
2023-02-18T21:24:57.006Z,77.38
2023-02-18T21:27:25.064Z,77.71
2023-02-18T21:29:53.060Z,77.91
2023-02-18T21:32:21.189Z,78.20
2023-02-18T21:34:51.043Z,77.76
2023-02-18T21:37:19.116Z,77.50
2023-02-18T21:39:47.051Z,77.55
2023-02-18T21:42:14.975Z,78.85
2023-02-18T21:44:43.185Z,79.41
2023-02-18T21:47:12.314Z,78.32
2023-02-18T21:49:40.322Z,78.74
2023-02-18T21:52:09.691Z,79.17
2023-02-18T21:54:40.416Z,79.68
2023-02-18T21:57:11.728Z,79.79
2023-02-18T21:59:40.820Z,80.56
2023-02-18T22:02:15.654Z,79.65
2023-02-18T22:04:43.666Z,79.89
2023-02-18T22:07:13.425Z,79.99
2023-02-18T22:09:41.672Z,78.98
2023-02-18T22:12:11.787Z,78.94
2023-02-18T22:14:39.894Z,78.70
2023-02-18T22:17:07.932Z,78.24
2023-02-18T22:19:36.699Z,79.13
2023-02-18T22:22:04.853Z,79.60
2023-02-18T22:24:34.642Z,78.82
2023-02-18T22:27:03.152Z,79.06
2023-02-18T22:29:32.444Z,79.62
2023-02-18T22:32:00.755Z,79.16
2023-02-18T22:34:28.795Z,79.28
2023-02-18T22:36:56.757Z,79.30
2023-02-18T22:39:26.442Z,79.30
2023-02-18T22:41:55.736Z,79.76
2023-02-18T22:44:26.194Z,78.39
2023-02-18T22:46:56.389Z,79.66
2023-02-18T22:49:24.490Z,78.86
2023-02-18T22:51:54.549Z,80.27
2023-02-18T22:54:23.025Z,80.26
2023-02-18T22:56:50.962Z,80.71
2023-02-18T22:59:20.422Z,79.53
2023-02-18T23:01:50.518Z,78.76
2023-02-18T23:04:19.938Z,79.24
2023-02-18T23:06:48.308Z,79.19
2023-02-18T23:09:17.985Z,80.10
2023-02-18T23:11:46.551Z,79.25
2023-02-18T23:14:21.320Z,78.96
2023-02-18T23:17:09.972Z,79.20
2023-02-18T23:19:38.869Z,78.59
2023-02-18T23:22:07.170Z,79.12
2023-02-18T23:24:36.013Z,78.30
2023-02-18T23:27:04.700Z,78.51
2023-02-18T23:29:33.103Z,78.22
2023-02-18T23:32:02.518Z,77.90
2023-02-18T23:34:31.215Z,77.63
2023-02-18T23:36:59.484Z,78.07
2023-02-18T23:39:27.939Z,78.17
2023-02-18T23:41:56.102Z,79.12
2023-02-18T23:44:25.913Z,76.89
2023-02-18T23:46:54.252Z,76.96
2023-02-18T23:49:25.761Z,75.93
2023-02-18T23:51:55.565Z,77.08
2023-02-18T23:54:23.791Z,76.40
2023-02-18T23:56:52.050Z,76.37
2023-02-18T23:59:20.164Z,78.24
